Dickey, North Dakota
Current Conditions -  °F | °C
As of 7:56 PM on Friday 21 Nov 2014 (Local Time) from KJMS Reporting Station
Clear Clear  
Wind Chill: 29°   Ceiling: Unl
Heat Index: 37°   Visibility: 10mi
Dew Point: 27°   Wind: 13mph
Humidity: 67%   Direction: 260°W
Pressure: 29.66"   Gusts: NA
Location:  46.54°N, 98.47°W
Report Text: KJMS 220156Z AUTO 26011KT 10SM CLR 03/M03 A2966 RMK AO2 SLP064 T00281028
Loading
Personal Weather Stations






























Interactive Weather Map New forecast layout! Learn more

10-Day Weather Forecast

Advertisements
Track Severe Weather on mobile